Time;durP1;ratioP1;P1;durP2;ratioP2;P2;SDS_P1;SDS_P2;PMS_P1;PMS_P2;Temp;Humidity;BMP_temperature;BMP_pressure;BME280_temperature;BME280_humidity;BME280_pressure;Samples;Min_cycle;Max_cycle;Signal;HPM_P1;HPM_P2
2021/04/09 00:01:43;;;;;;;10.47;6.77;;;2.70;99.90;;;;;;5011354;28;20258;-64
2021/04/09 00:04:09;;;;;;;8.83;6.73;;;2.80;99.90;;;;;;5011075;28;20606;-66
2021/04/09 00:06:35;;;;;;;9.70;6.80;;;2.80;99.90;;;;;;4991987;28;20578;-63
2021/04/09 00:09:01;;;;;;;7.33;6.53;;;2.80;99.90;;;;;;5008807;28;20188;-66
2021/04/09 00:11:27;;;;;;;11.77;7.13;;;2.90;99.90;;;;;;5011812;28;20207;-65
2021/04/09 00:13:53;;;;;;;14.97;7.47;;;2.90;99.90;;;;;;4996248;28;20228;-65
2021/04/09 00:16:19;;;;;;;9.90;7.27;;;3.00;99.90;;;;;;4991730;28;20239;-63
2021/04/09 00:18:44;;;;;;;9.70;7.00;;;3.00;99.90;;;;;;5005315;28;20176;-64
2021/04/09 00:21:10;;;;;;;9.90;7.03;;;3.00;99.90;;;;;;5011363;28;20563;-63
2021/04/09 00:23:35;;;;;;;11.53;7.10;;;3.00;99.90;;;;;;4999423;28;20196;-63
2021/04/09 00:26:03;;;;;;;11.87;6.87;;;3.00;99.90;;;;;;4991810;28;20193;-63
2021/04/09 00:28:29;;;;;;;13.97;7.53;;;3.00;99.90;;;;;;4993090;28;20548;-63
2021/04/09 00:30:55;;;;;;;9.23;6.93;;;2.90;99.90;;;;;;4991475;28;20231;-63
2021/04/09 00:33:20;;;;;;;12.60;7.00;;;2.90;99.90;;;;;;5000321;28;20595;-64
2021/04/09 00:35:46;;;;;;;11.03;7.07;;;2.80;99.90;;;;;;5005910;28;20669;-64
2021/04/09 00:38:12;;;;;;;9.73;7.43;;;2.80;99.90;;;;;;4991718;28;20180;-63
2021/04/09 00:40:39;;;;;;;10.70;6.60;;;2.80;99.90;;;;;;4994848;28;20729;-63
2021/04/09 00:43:07;;;;;;;12.57;6.93;;;2.70;99.90;;;;;;5011454;28;20179;-64
2021/04/09 00:45:36;;;;;;;12.50;7.33;;;2.70;99.90;;;;;;5008688;28;20213;-64
2021/04/09 00:48:05;;;;;;;9.87;7.17;;;2.70;99.90;;;;;;4991727;28;20269;-63
2021/04/09 00:50:32;;;;;;;8.93;7.40;;;2.70;99.90;;;;;;4996392;28;20208;-64
2021/04/09 00:53:00;;;;;;;14.53;7.40;;;2.70;99.90;;;;;;5015142;28;20181;-63
2021/04/09 00:55:26;;;;;;;9.90;7.60;;;2.60;99.90;;;;;;5014581;28;20267;-63
2021/04/09 00:57:55;;;;;;;13.03;7.43;;;2.60;99.90;;;;;;4995261;28;20179;-66
2021/04/09 01:00:21;;;;;;;17.70;7.17;;;2.50;99.90;;;;;;4999489;28;20187;-66
2021/04/09 01:02:47;;;;;;;11.23;7.50;;;2.50;99.90;;;;;;5015050;28;20272;-64
2021/04/09 01:05:15;;;;;;;10.57;7.07;;;2.50;99.90;;;;;;4999099;28;20624;-64
2021/04/09 01:07:42;;;;;;;11.43;7.10;;;2.50;99.90;;;;;;4995135;28;20263;-63
2021/04/09 01:10:09;;;;;;;8.73;6.93;;;2.50;99.90;;;;;;5007398;28;20200;-66
2021/04/09 01:12:36;;;;;;;12.07;7.20;;;2.40;99.90;;;;;;5014676;28;20169;-63
2021/04/09 01:15:03;;;;;;;14.80;7.57;;;2.40;99.90;;;;;;5001258;28;20303;-63
2021/04/09 01:17:41;;;;;;;8.33;6.53;;;2.40;99.90;;;;;;4995078;28;20177;-62
2021/04/09 01:20:31;;;;;;;8.57;6.20;;;2.40;99.90;;;;;;5007403;28;20183;-65
2021/04/09 01:23:03;;;;;;;8.53;6.40;;;2.40;99.90;;;;;;5014785;28;20179;-65
2021/04/09 01:25:44;;;;;;;9.63;6.73;;;2.50;99.90;;;;;;4998792;28;20359;-65
2021/04/09 01:28:13;;;;;;;14.53;7.07;;;2.50;99.90;;;;;;4994847;28;20631;-65
2021/04/09 01:30:54;;;;;;;13.33;7.00;;;2.50;99.90;;;;;;5010457;28;20621;-65
2021/04/09 01:33:43;;;;;;;10.97;7.33;;;2.50;99.90;;;;;;4999294;28;20420;-65
2021/04/09 01:36:14;;;;;;;9.03;6.63;;;2.50;99.90;;;;;;4994621;28;20200;-63
2021/04/09 01:38:50;;;;;;;9.83;6.53;;;2.50;99.90;;;;;;5002073;28;20216;-65
2021/04/09 01:41:15;;;;;;;10.67;6.90;;;2.50;99.90;;;;;;4994381;28;20227;-63
2021/04/09 01:43:43;;;;;;;8.83;6.47;;;2.50;99.90;;;;;;5009367;28;20180;-63
2021/04/09 01:46:11;;;;;;;16.10;7.77;;;2.50;99.90;;;;;;5013950;28;20306;-65
2021/04/09 01:48:41;;;;;;;10.30;6.90;;;2.50;99.90;;;;;;5003320;28;20184;-64
2021/04/09 01:51:12;;;;;;;14.50;6.80;;;2.60;99.90;;;;;;5013700;28;20222;-65
2021/04/09 01:53:40;;;;;;;11.90;7.03;;;2.60;99.90;;;;;;4997810;28;20207;-65
2021/04/09 01:56:08;;;;;;;7.07;6.37;;;2.60;99.90;;;;;;4994043;28;20667;-64
2021/04/09 01:58:37;;;;;;;12.33;6.63;;;2.70;99.90;;;;;;5008092;28;20638;-65
2021/04/09 02:01:07;;;;;;;11.47;6.93;;;2.70;99.90;;;;;;5013145;28;20172;-65
2021/04/09 02:03:33;;;;;;;12.07;6.77;;;2.80;99.90;;;;;;5012116;28;20187;-65
2021/04/09 02:06:00;;;;;;;23.37;7.10;;;2.90;99.90;;;;;;5013665;28;20214;-64
2021/04/09 02:08:26;;;;;;;7.70;6.03;;;2.90;99.90;;;;;;5001444;28;20271;-65
2021/04/09 02:10:56;;;;;;;10.93;6.50;;;3.00;99.90;;;;;;4993614;28;20239;-64
2021/04/09 02:13:23;;;;;;;9.40;6.23;;;3.10;99.90;;;;;;5001209;28;20180;-64
2021/04/09 02:15:56;;;;;;;10.60;6.90;;;3.10;99.90;;;;;;5013268;28;20208;-64
2021/04/09 02:18:27;;;;;;;9.23;6.50;;;3.20;99.90;;;;;;5003021;28;20676;-64
2021/04/09 02:20:53;;;;;;;10.37;6.67;;;3.20;99.90;;;;;;4993618;28;20278;-63
2021/04/09 02:23:19;;;;;;;9.67;7.33;;;3.30;99.90;;;;;;5002945;28;20180;-62
2021/04/09 02:25:45;;;;;;;10.27;6.70;;;3.30;99.90;;;;;;5013222;28;20700;-64
2021/04/09 02:28:12;;;;;;;11.70;6.93;;;3.30;99.90;;;;;;5005104;28;20177;-63
2021/04/09 02:30:37;;;;;;;11.03;6.20;;;3.40;99.90;;;;;;4994541;28;20674;-64
2021/04/09 02:33:03;;;;;;;7.53;6.03;;;3.40;99.90;;;;;;5013244;28;20200;-64
2021/04/09 02:35:29;;;;;;;10.67;6.47;;;3.40;99.90;;;;;;5012859;28;20198;-62
2021/04/09 02:37:55;;;;;;;11.57;7.13;;;3.40;99.90;;;;;;4993534;28;20185;-63
2021/04/09 02:40:27;;;;;;;10.50;6.10;;;3.40;99.90;;;;;;4993301;28;20173;-64
2021/04/09 02:42:53;;;;;;;8.77;5.90;;;3.30;99.90;;;;;;5011932;28;20187;-63
2021/04/09 02:45:21;;;;;;;10.63;7.03;;;3.30;99.90;;;;;;5012992;28;20273;-65
2021/04/09 02:47:48;;;;;;;11.97;6.73;;;3.30;99.90;;;;;;4995343;28;20598;-65
2021/04/09 02:50:28;;;;;;;11.30;7.17;;;3.30;99.90;;;;;;4992812;28;20666;-63
2021/04/09 02:53:00;;;;;;;9.90;6.50;;;3.20;99.90;;;;;;5009565;28;20270;-65
2021/04/09 02:55:33;;;;;;;14.13;7.87;;;3.20;99.90;;;;;;5012959;28;20188;-66
2021/04/09 02:58:03;;;;;;;12.43;7.53;;;3.20;99.90;;;;;;4994706;28;20668;-65
2021/04/09 03:00:29;;;;;;;7.97;6.13;;;3.20;99.90;;;;;;5003968;28;20629;-64
2021/04/09 03:02:56;;;;;;;15.03;6.97;;;3.20;99.90;;;;;;5005562;28;20226;-62
2021/04/09 03:05:23;;;;;;;9.00;6.77;;;3.20;99.90;;;;;;5012701;28;20191;-65
2021/04/09 03:07:49;;;;;;;12.23;7.73;;;3.20;99.90;;;;;;5000826;28;20300;-64
2021/04/09 03:10:17;;;;;;;11.77;7.10;;;3.20;99.90;;;;;;4992493;28;20200;-64
2021/04/09 03:12:43;;;;;;;11.70;7.10;;;3.20;99.90;;;;;;5001875;28;20207;-65
2021/04/09 03:15:24;;;;;;;10.23;7.23;;;3.10;99.90;;;;;;5012925;28;20219;-65
2021/04/09 03:17:55;;;;;;;9.93;7.50;;;3.10;99.90;;;;;;5001572;28;20713;-67
2021/04/09 03:20:21;;;;;;;11.70;7.43;;;3.00;99.90;;;;;;4992379;28;20256;-66
2021/04/09 03:22:47;;;;;;;14.10;8.23;;;3.00;99.90;;;;;;5000740;28;20279;-64
2021/04/09 03:25:12;;;;;;;11.07;7.10;;;3.00;99.90;;;;;;5012288;28;20198;-64
2021/04/09 03:27:38;;;;;;;12.77;7.97;;;3.00;99.90;;;;;;5004321;28;20212;-64
2021/04/09 03:30:05;;;;;;;11.97;7.43;;;3.00;99.90;;;;;;4991229;28;20205;-63
2021/04/09 03:32:30;;;;;;;13.50;7.40;;;3.00;99.90;;;;;;4998770;28;20184;-63
2021/04/09 03:34:56;;;;;;;12.43;7.87;;;3.00;99.90;;;;;;5012027;28;20176;-66
2021/04/09 03:37:22;;;;;;;11.43;8.17;;;3.00;99.90;;;;;;5007449;28;20255;-65
2021/04/09 03:39:47;;;;;;;8.77;7.63;;;2.90;99.90;;;;;;4992143;28;20654;-65
2021/04/09 03:42:13;;;;;;;12.23;8.47;;;2.90;99.90;;;;;;4994970;28;20184;-65
2021/04/09 03:44:38;;;;;;;12.60;8.07;;;3.00;99.90;;;;;;5011872;28;20248;-64
2021/04/09 03:47:04;;;;;;;12.63;7.67;;;2.90;99.90;;;;;;5010652;28;20220;-63
2021/04/09 03:49:30;;;;;;;9.67;8.33;;;2.90;99.90;;;;;;4992240;28;20196;-65
2021/04/09 03:51:55;;;;;;;11.67;7.67;;;2.90;99.90;;;;;;4991979;28;20291;-65
2021/04/09 03:54:21;;;;;;;12.57;8.53;;;3.00;99.90;;;;;;5011107;28;20188;-66
2021/04/09 03:56:47;;;;;;;15.60;8.53;;;3.00;99.90;;;;;;4995042;28;20205;-65
2021/04/09 03:59:12;;;;;;;14.37;7.67;;;3.00;99.90;;;;;;4992289;28;20551;-65
2021/04/09 04:01:38;;;;;;;12.33;7.97;;;3.10;99.90;;;;;;5005514;28;20612;-65
2021/04/09 04:04:04;;;;;;;13.53;8.10;;;3.10;99.90;;;;;;5011817;28;20203;-65
2021/04/09 04:06:29;;;;;;;12.97;8.87;;;3.10;99.90;;;;;;4999052;28;20204;-63
2021/04/09 04:08:55;;;;;;;15.07;8.20;;;3.10;99.90;;;;;;4992329;28;20216;-66
2021/04/09 04:11:21;;;;;;;13.23;8.67;;;3.10;99.90;;;;;;5002226;28;20212;-66
2021/04/09 04:13:46;;;;;;;15.10;8.10;;;3.20;99.90;;;;;;5011642;28;20175;-63
2021/04/09 04:16:12;;;;;;;12.00;8.77;;;3.20;99.90;;;;;;5002240;28;20682;-65
2021/04/09 04:18:38;;;;;;;12.07;8.67;;;3.10;99.90;;;;;;4991964;28;20184;-66
2021/04/09 04:21:03;;;;;;;13.07;7.93;;;3.10;99.90;;;;;;4998421;28;20193;-63
2021/04/09 04:23:29;;;;;;;13.73;8.17;;;3.10;99.90;;;;;;5014051;28;20662;-63
2021/04/09 04:25:55;;;;;;;11.13;8.43;;;3.10;99.90;;;;;;5010169;28;20572;-66
2021/04/09 04:28:22;;;;;;;12.93;8.87;;;3.00;99.90;;;;;;4995773;28;20177;-65
2021/04/09 04:30:51;;;;;;;11.60;8.27;;;3.00;99.90;;;;;;4998724;28;20623;-63
2021/04/09 04:33:20;;;;;;;15.37;8.67;;;3.00;99.90;;;;;;5015446;28;20183;-66
2021/04/09 04:35:47;;;;;;;12.37;8.20;;;3.00;99.90;;;;;;5010114;28;20197;-66
2021/04/09 04:38:13;;;;;;;11.07;8.23;;;3.00;99.90;;;;;;5015314;28;20554;-65
2021/04/09 04:40:38;;;;;;;13.93;9.13;;;3.00;99.90;;;;;;5009046;28;20181;-65
2021/04/09 04:43:04;;;;;;;13.00;7.87;;;3.00;99.90;;;;;;4995706;28;20250;-66
2021/04/09 04:45:31;;;;;;;12.27;9.30;;;3.00;99.90;;;;;;4996079;28;20674;-66
2021/04/09 04:47:57;;;;;;;12.00;8.20;;;3.00;99.90;;;;;;4995619;28;20212;-66
2021/04/09 04:50:23;;;;;;;12.67;8.23;;;3.00;99.90;;;;;;5012223;28;20685;-65
2021/04/09 04:52:48;;;;;;;12.80;8.97;;;3.10;99.90;;;;;;5015022;28;20172;-66
2021/04/09 04:55:14;;;;;;;12.20;8.07;;;3.10;99.90;;;;;;4999197;28;20259;-66
2021/04/09 04:57:40;;;;;;;11.80;8.87;;;3.10;99.90;;;;;;4994333;28;20177;-66
2021/04/09 05:00:06;;;;;;;12.17;9.00;;;3.10;99.90;;;;;;5008553;28;20172;-66
2021/04/09 05:02:32;;;;;;;13.43;8.73;;;3.10;99.90;;;;;;5004626;28;20188;-65
2021/04/09 05:04:57;;;;;;;11.90;8.33;;;3.10;99.90;;;;;;4995228;28;20177;-65
2021/04/09 05:07:23;;;;;;;13.57;9.40;;;3.10;99.90;;;;;;5002949;28;20180;-66
2021/04/09 05:09:48;;;;;;;13.87;9.23;;;3.00;99.90;;;;;;5014569;28;20529;-65
2021/04/09 05:12:14;;;;;;;13.10;8.90;;;3.00;99.90;;;;;;5008225;28;20184;-66
2021/04/09 05:14:40;;;;;;;13.03;9.67;;;3.00;99.90;;;;;;4999648;28;20183;-65
2021/04/09 05:17:05;;;;;;;12.67;8.83;;;3.10;99.90;;;;;;5014713;28;20180;-66
2021/04/09 05:19:31;;;;;;;12.93;9.53;;;3.10;99.90;;;;;;5011282;28;20536;-65
2021/04/09 05:21:56;;;;;;;16.40;9.07;;;3.20;99.90;;;;;;5001473;28;20194;-65
2021/04/09 05:24:22;;;;;;;17.60;9.23;;;3.30;99.90;;;;;;5013841;28;20186;-66
2021/04/09 05:26:48;;;;;;;12.73;9.17;;;3.40;99.90;;;;;;5014297;28;20375;-64
2021/04/09 05:29:13;;;;;;;14.97;9.33;;;3.40;99.90;;;;;;5014429;28;20208;-65
2021/04/09 05:31:39;;;;;;;12.10;8.97;;;3.50;99.90;;;;;;4994674;28;20212;-66
2021/04/09 05:34:05;;;;;;;12.37;8.57;;;3.60;99.90;;;;;;4993958;28;20208;-64
2021/04/09 05:36:30;;;;;;;14.93;9.63;;;3.70;99.90;;;;;;5011508;28;20200;-64
2021/04/09 05:38:56;;;;;;;12.17;8.70;;;3.70;99.90;;;;;;5014158;28;20175;-65
2021/04/09 05:41:22;;;;;;;13.73;9.40;;;3.90;99.90;;;;;;4998209;28;20304;-66
2021/04/09 05:43:48;;;;;;;11.87;8.43;;;4.00;99.90;;;;;;4994532;28;20228;-66
2021/04/09 05:46:14;;;;;;;13.03;8.87;;;4.10;99.90;;;;;;5007941;28;20295;-65
2021/04/09 05:48:40;;;;;;;12.87;7.87;;;4.20;99.90;;;;;;5014485;28;20199;-66
2021/04/09 05:51:06;;;;;;;12.77;9.30;;;4.30;99.90;;;;;;5001836;28;20200;-65
2021/04/09 05:53:33;;;;;;;10.27;7.73;;;4.50;99.90;;;;;;4992945;28;20187;-64
2021/04/09 05:55:58;;;;;;;11.53;8.50;;;4.60;99.90;;;;;;5003309;28;20511;-64
2021/04/09 05:58:24;;;;;;;12.57;8.00;;;4.80;99.90;;;;;;5013634;28;20251;-66
2021/04/09 06:00:50;;;;;;;15.40;8.73;;;5.00;99.90;;;;;;5004689;28;20191;-64
2021/04/09 06:03:16;;;;;;;10.93;7.33;;;5.10;99.90;;;;;;4994403;28;20655;-64
2021/04/09 06:05:41;;;;;;;13.33;8.60;;;5.40;99.90;;;;;;5000200;28;20203;-64
2021/04/09 06:08:10;;;;;;;14.37;9.20;;;5.50;99.90;;;;;;5009590;28;20664;-65
2021/04/09 06:10:36;;;;;;;12.07;7.50;;;5.70;99.90;;;;;;4993264;28;20204;-65
2021/04/09 06:13:01;;;;;;;12.50;7.43;;;5.90;99.90;;;;;;4996156;28;20649;-65
2021/04/09 06:15:27;;;;;;;10.20;7.80;;;6.10;99.90;;;;;;5013276;28;20208;-65
2021/04/09 06:17:53;;;;;;;12.27;7.80;;;6.30;99.90;;;;;;5012561;28;20186;-64
2021/04/09 06:20:19;;;;;;;11.53;7.57;;;6.50;99.90;;;;;;4993388;28;20529;-63
2021/04/09 06:22:46;;;;;;;9.83;7.17;;;6.60;99.90;;;;;;4993905;28;20168;-63
2021/04/09 06:25:13;;;;;;;8.80;7.10;;;6.70;99.90;;;;;;5012261;28;20203;-64
2021/04/09 06:27:38;;;;;;;9.77;7.70;;;6.80;99.90;;;;;;5013060;28;20180;-65
2021/04/09 06:30:05;;;;;;;9.87;7.47;;;6.90;99.90;;;;;;4995797;28;20207;-64
2021/04/09 06:32:30;;;;;;;15.43;7.63;;;7.00;99.90;;;;;;4993356;28;20252;-65
2021/04/09 06:34:56;;;;;;;11.20;6.97;;;7.00;99.90;;;;;;5008382;28;20745;-64
2021/04/09 06:37:21;;;;;;;8.87;7.47;;;7.10;99.90;;;;;;5000392;28;20685;-63
2021/04/09 06:39:47;;;;;;;12.30;7.27;;;7.20;99.90;;;;;;4993264;28;20366;-66
2021/04/09 06:42:15;;;;;;;13.47;7.77;;;7.30;99.90;;;;;;5003615;28;20263;-62
2021/04/09 06:44:42;;;;;;;10.93;6.67;;;7.30;99.90;;;;;;5012719;28;20688;-63
2021/04/09 06:47:07;;;;;;;10.30;7.07;;;7.40;99.90;;;;;;5011160;28;20718;-63
2021/04/09 06:49:33;;;;;;;11.10;7.43;;;7.50;99.90;;;;;;5012710;28;20303;-64
2021/04/09 06:51:59;;;;;;;10.67;7.07;;;7.50;99.90;;;;;;5005043;28;20251;-63
2021/04/09 06:54:25;;;;;;;9.47;7.40;;;7.60;99.90;;;;;;4993034;28;20184;-65
2021/04/09 06:56:53;;;;;;;10.17;7.03;;;7.60;99.90;;;;;;4993934;28;20192;-66
2021/04/09 06:59:24;;;;;;;14.07;7.53;;;7.70;99.90;;;;;;4993018;28;20643;-65
2021/04/09 07:01:51;;;;;;;10.37;7.20;;;8.00;99.90;;;;;;5005966;28;20187;-63
2021/04/09 07:04:17;;;;;;;8.53;6.33;;;8.20;99.90;;;;;;5010080;28;20238;-65
2021/04/09 07:06:43;;;;;;;9.97;6.77;;;8.50;99.90;;;;;;4992672;28;20201;-64
2021/04/09 07:09:08;;;;;;;7.37;6.67;;;8.80;99.90;;;;;;4993025;28;20540;-64
2021/04/09 07:11:38;;;;;;;9.23;6.93;;;9.10;99.90;;;;;;4993242;28;20211;-63
2021/04/09 07:14:04;;;;;;;10.67;6.97;;;9.40;99.90;;;;;;4992763;28;20514;-63
2021/04/09 07:16:30;;;;;;;10.17;6.50;;;9.70;99.90;;;;;;5010946;28;20247;-64
2021/04/09 07:19:04;;;;;;;8.60;6.53;;;9.90;99.90;;;;;;5012560;28;20215;-64
2021/04/09 07:21:32;;;;;;;8.13;6.67;;;10.00;99.90;;;;;;5010186;28;20523;-64
2021/04/09 07:24:13;;;;;;;14.87;6.80;;;10.20;99.90;;;;;;5012308;28;20217;-64
2021/04/09 07:26:42;;;;;;;8.07;6.43;;;10.30;99.90;;;;;;4993127;28;20208;-65
2021/04/09 07:29:28;;;;;;;9.10;6.27;;;10.40;99.90;;;;;;4992831;28;20172;-65
2021/04/09 07:31:53;;;;;;;10.60;6.40;;;10.60;99.90;;;;;;4972991;28;20221;-65
2021/04/09 07:34:19;;;;;;;8.27;6.47;;;10.90;99.90;;;;;;5007583;28;20558;-66
2021/04/09 07:36:56;;;;;;;9.93;6.33;;;10.90;99.90;;;;;;5012208;28;20196;-65
2021/04/09 07:39:54;;;;;;;9.20;6.57;;;11.10;99.90;;;;;;4995169;28;20181;-64
2021/04/09 07:42:29;;;;;;;7.43;5.90;;;11.30;99.90;;;;;;4984314;28;20223;-65
2021/04/09 07:45:00;;;;;;;14.03;6.33;;;11.50;99.90;;;;;;4973162;28;20169;-63
2021/04/09 07:47:27;;;;;;;8.47;6.10;;;11.80;99.90;;;;;;4973287;28;20193;-66
2021/04/09 07:50:09;;;;;;;12.27;5.70;;;12.10;99.90;;;;;;4972515;28;20265;-65
2021/04/09 07:52:42;;;;;;;6.83;5.73;;;12.40;99.90;;;;;;4973092;28;20514;-64
2021/04/09 07:55:13;;;;;;;9.10;6.20;;;12.60;99.90;;;;;;5011760;28;20188;-64
2021/04/09 07:57:38;;;;;;;8.70;6.17;;;13.10;99.90;;;;;;5010620;28;20176;-64
2021/04/09 08:00:27;;;;;;;9.43;5.43;;;13.60;99.90;;;;;;5010429;28;20199;-64
2021/04/09 08:02:54;;;;;;;8.90;5.70;;;13.90;99.90;;;;;;5009829;28;20168;-64
2021/04/09 08:05:23;;;;;;;9.13;5.77;;;14.30;99.90;;;;;;4992063;28;20189;-64
2021/04/09 08:07:49;;;;;;;7.93;5.87;;;14.50;99.90;;;;;;4991997;28;20164;-65
2021/04/09 08:10:17;;;;;;;10.10;6.33;;;14.70;99.90;;;;;;5011312;28;20698;-64
2021/04/09 08:12:50;;;;;;;9.23;5.90;;;14.70;99.90;;;;;;5011108;28;20210;-63
2021/04/09 08:15:16;;;;;;;9.33;6.53;;;14.80;99.90;;;;;;4990798;28;20593;-64
2021/04/09 08:17:43;;;;;;;8.90;6.03;;;15.10;99.90;;;;;;4991907;28;20169;-64
2021/04/09 08:20:11;;;;;;;8.40;6.20;;;15.50;99.90;;;;;;5003739;28;20207;-64
2021/04/09 08:22:37;;;;;;;11.30;6.33;;;15.40;99.90;;;;;;4991814;28;20184;-65
2021/04/09 08:25:04;;;;;;;10.53;6.57;;;14.70;99.90;;;;;;5008110;28;20204;-63
2021/04/09 08:27:30;;;;;;;9.37;6.33;;;14.40;99.90;;;;;;5000954;28;20547;-63
2021/04/09 08:29:56;;;;;;;10.27;6.27;;;14.10;99.90;;;;;;4991558;28;20184;-64
2021/04/09 08:32:22;;;;;;;8.00;5.97;;;13.70;99.90;;;;;;4992719;28;20595;-64
2021/04/09 08:34:49;;;;;;;9.10;5.90;;;13.60;99.90;;;;;;4991979;28;20169;-65
2021/04/09 08:37:15;;;;;;;10.93;6.67;;;13.70;99.90;;;;;;4998712;28;20564;-67
2021/04/09 08:39:41;;;;;;;10.33;6.23;;;13.90;99.90;;;;;;4992712;28;20185;-64
2021/04/09 08:42:06;;;;;;;10.83;6.87;;;14.10;99.90;;;;;;4992716;28;20550;-64
2021/04/09 08:44:33;;;;;;;8.67;6.43;;;14.60;99.90;;;;;;4991552;28;20680;-63
2021/04/09 08:46:59;;;;;;;9.60;6.43;;;14.50;99.90;;;;;;4994674;28;20200;-64
2021/04/09 08:49:27;;;;;;;8.63;6.00;;;14.20;99.90;;;;;;5011318;28;20176;-64
2021/04/09 08:51:58;;;;;;;10.40;6.00;;;14.70;99.90;;;;;;5008646;28;20236;-64
2021/04/09 08:54:30;;;;;;;11.80;6.20;;;15.40;99.90;;;;;;4991532;28;20643;-64
2021/04/09 08:57:01;;;;;;;8.97;6.20;;;16.10;99.90;;;;;;4972509;28;20212;-63
2021/04/09 08:59:38;;;;;;;9.93;6.00;;;16.70;99.90;;;;;;4983963;28;20676;-64
2021/04/09 09:02:25;;;;;;;12.53;7.00;;;17.30;99.90;;;;;;5011142;28;20180;-65
2021/04/09 09:05:02;;;;;;;10.30;5.77;;;17.20;99.90;;;;;;5002357;28;20185;-64
2021/04/09 09:07:43;;;;;;;9.67;6.03;;;16.50;99.90;;;;;;4991611;28;20165;-66
2021/04/09 09:10:29;;;;;;;9.07;5.80;;;16.90;99.90;;;;;;4994021;28;20184;-65
2021/04/09 09:13:14;;;;;;;10.63;6.03;;;16.70;99.90;;;;;;4994992;28;20169;-65
2021/04/09 09:15:42;;;;;;;8.07;5.73;;;16.40;99.90;;;;;;5057239;22;20293;-64
2021/04/09 09:18:23;;;;;;;10.30;6.63;;;15.20;99.90;;;;;;5018363;28;20168;-64
2021/04/09 09:21:03;;;;;;;8.50;5.47;;;14.90;99.90;;;;;;5024403;28;20183;-65
2021/04/09 09:24:18;;;;;;;8.50;6.10;;;14.40;99.90;;;;;;5024352;28;20218;-64
2021/04/09 09:26:46;;;;;;;8.70;5.67;;;14.80;99.90;;;;;;4970859;28;20600;-64
2021/04/09 09:29:15;;;;;;;9.57;5.77;;;15.40;99.90;;;;;;5008269;28;20203;-65
2021/04/09 09:31:47;;;;;;;12.10;6.57;;;15.50;99.90;;;;;;5014069;28;20207;-64
2021/04/09 09:34:24;;;;;;;9.70;5.93;;;15.30;99.90;;;;;;4999542;28;20550;-65
2021/04/09 09:37:12;;;;;;;9.60;6.17;;;15.40;99.90;;;;;;4993044;28;20222;-64
2021/04/09 09:39:42;;;;;;;7.77;5.57;;;15.60;99.90;;;;;;5011492;28;20234;-65
2021/04/09 09:42:13;;;;;;;9.50;6.27;;;15.80;99.90;;;;;;5013995;28;20172;-65
2021/04/09 09:44:39;;;;;;;7.90;5.47;;;15.70;99.90;;;;;;4996483;28;20227;-65
2021/04/09 09:47:16;;;;;;;8.17;6.10;;;15.70;99.90;;;;;;4994413;28;20210;-64
2021/04/09 09:52:53;;;;;;;9.80;5.77;;;15.90;99.90;;;;;;5003469;28;20180;-64
2021/04/09 09:55:30;;;;;;;10.07;5.80;;;15.90;99.90;;;;;;4975065;28;20562;-65
2021/04/09 09:58:05;;;;;;;9.53;5.50;;;15.90;99.90;;;;;;4977095;28;20640;-65
2021/04/09 10:00:36;;;;;;;8.17;6.20;;;15.90;99.90;;;;;;5013467;28;20222;-65
2021/04/09 10:03:28;;;;;;;9.37;6.40;;;15.80;99.90;;;;;;5011908;28;20512;-65
2021/04/09 10:06:01;;;;;;;9.33;6.40;;;16.00;99.90;;;;;;4994094;28;20199;-64
2021/04/09 10:08:35;;;;;;;7.43;6.30;;;15.80;99.90;;;;;;4997610;28;20238;-64
2021/04/09 10:11:06;;;;;;;7.60;5.90;;;15.80;99.90;;;;;;5013410;28;20282;-64
2021/04/09 10:13:37;;;;;;;10.07;5.67;;;15.70;99.90;;;;;;5011748;28;20263;-64
2021/04/09 10:16:13;;;;;;;9.53;5.77;;;15.80;99.90;;;;;;4974390;28;20317;-64
2021/04/09 10:18:48;;;;;;;8.53;6.37;;;15.80;99.90;;;;;;4983219;28;20557;-65
2021/04/09 10:21:27;;;;;;;9.30;5.60;;;16.00;99.90;;;;;;5012898;28;20179;-64
2021/04/09 10:24:14;;;;;;;9.47;5.53;;;16.20;99.90;;;;;;5006573;28;20191;-65
2021/04/09 10:26:54;;;;;;;9.10;5.90;;;15.70;99.90;;;;;;4993504;28;20193;-64
2021/04/09 10:29:38;;;;;;;10.10;5.40;;;15.70;99.90;;;;;;5003089;28;20184;-64
2021/04/09 10:32:12;;;;;;;10.60;5.03;;;15.80;99.90;;;;;;5012959;28;20199;-64
2021/04/09 10:34:38;;;;;;;7.73;5.87;;;15.60;99.90;;;;;;5001223;28;20234;-64
2021/04/09 10:37:06;;;;;;;8.90;5.10;;;15.60;99.90;;;;;;4993536;28;20586;-64
2021/04/09 10:39:31;;;;;;;7.63;5.40;;;16.10;99.90;;;;;;5003198;28;20180;-64
2021/04/09 10:42:02;;;;;;;8.20;6.33;;;16.50;99.90;;;;;;5005793;28;20187;-64
2021/04/09 10:44:29;;;;;;;9.87;5.43;;;16.40;99.90;;;;;;4993301;28;20212;-64
2021/04/09 10:47:06;;;;;;;7.70;5.27;;;16.60;99.90;;;;;;4998607;28;20196;-64
2021/04/09 10:49:34;;;;;;;6.47;5.60;;;16.90;99.90;;;;;;5013045;28;20179;-64
2021/04/09 10:52:04;;;;;;;6.87;4.90;;;17.20;99.90;;;;;;5006863;28;20559;-64
2021/04/09 10:54:32;;;;;;;10.00;5.37;;;17.20;99.90;;;;;;4993256;28;20222;-64
2021/04/09 10:57:05;;;;;;;7.83;5.20;;;16.80;99.90;;;;;;4996779;28;20219;-64
2021/04/09 10:59:36;;;;;;;8.53;5.03;;;16.60;99.90;;;;;;5012551;28;20218;-64
2021/04/09 11:02:03;;;;;;;6.77;5.10;;;16.40;99.90;;;;;;5007004;28;20327;-65
2021/04/09 11:04:31;;;;;;;5.13;4.10;;;16.40;99.90;;;;;;4993040;28;20381;-64
2021/04/09 11:07:05;;;;;;;7.73;4.53;;;16.10;99.90;;;;;;4996627;28;20199;-63
2021/04/09 11:09:45;;;;;;;6.87;4.13;;;16.00;99.90;;;;;;5010787;28;20175;-64
2021/04/09 11:12:21;;;;;;;9.87;5.30;;;16.30;99.90;;;;;;4992858;28;20569;-64
2021/04/09 11:14:49;;;;;;;8.43;5.07;;;16.30;99.90;;;;;;4995599;28;20175;-64
2021/04/09 11:17:25;;;;;;;7.60;4.80;;;16.30;99.90;;;;;;5012384;28;20206;-65
2021/04/09 11:19:54;;;;;;;9.83;5.10;;;16.90;99.90;;;;;;5008481;28;20235;-64
2021/04/09 11:22:20;;;;;;;8.50;4.70;;;17.60;99.90;;;;;;4992667;28;20187;-64
2021/04/09 11:24:59;;;;;;;7.03;4.40;;;17.80;99.90;;;;;;4994244;28;20639;-64
2021/04/09 11:27:30;;;;;;;7.13;4.73;;;17.50;99.90;;;;;;5011014;28;20342;-64
2021/04/09 11:30:19;;;;;;;6.17;4.60;;;17.10;99.90;;;;;;5008760;28;20172;-64
2021/04/09 11:32:50;;;;;;;7.03;4.73;;;16.70;99.90;;;;;;4991547;28;20211;-64
2021/04/09 11:35:16;;;;;;;7.87;4.67;;;16.30;99.90;;;;;;4997477;28;20665;-65
2021/04/09 11:37:48;;;;;;;5.77;3.67;;;16.30;99.90;;;;;;5010293;28;20180;-64
2021/04/09 11:40:16;;;;;;;5.93;3.63;;;16.50;99.90;;;;;;5000222;28;20184;-64
2021/04/09 11:42:42;;;;;;;6.83;3.97;;;16.50;99.90;;;;;;5010551;28;20550;-64
2021/04/09 11:45:13;;;;;;;7.13;4.20;;;16.10;99.90;;;;;;4992348;28;20483;-64
2021/04/09 11:47:43;;;;;;;7.33;4.33;;;15.90;99.90;;;;;;4992273;28;20239;-65
2021/04/09 11:50:11;;;;;;;6.23;3.93;;;15.70;99.90;;;;;;5011634;28;20202;-64
2021/04/09 11:52:52;;;;;;;6.10;4.23;;;15.80;99.90;;;;;;5011634;28;20199;-64
2021/04/09 11:55:19;;;;;;;4.60;3.93;;;16.00;99.90;;;;;;4972817;28;20185;-64
2021/04/09 11:57:45;;;;;;;5.47;4.07;;;16.50;99.90;;;;;;4972896;28;20181;-64
2021/04/09 12:00:26;;;;;;;6.93;4.40;;;17.00;99.90;;;;;;5010037;28;20528;-64
2021/04/09 12:03:01;;;;;;;6.87;3.80;;;17.20;99.90;;;;;;4991947;28;20183;-65
2021/04/09 12:05:29;;;;;;;5.43;4.00;;;17.30;99.90;;;;;;5011763;28;20610;-64
2021/04/09 12:07:55;;;;;;;7.83;4.10;;;16.90;99.90;;;;;;4993396;28;20594;-64
2021/04/09 12:10:22;;;;;;;6.10;4.00;;;16.80;99.90;;;;;;4991899;28;20913;-63
2021/04/09 12:12:49;;;;;;;8.53;4.47;;;16.60;99.90;;;;;;5008454;28;20214;-65
2021/04/09 12:15:14;;;;;;;4.90;4.07;;;16.30;99.90;;;;;;5011813;28;20168;-64
2021/04/09 12:17:40;;;;;;;4.57;4.10;;;16.40;99.90;;;;;;4996286;28;20192;-64
2021/04/09 12:20:12;;;;;;;5.90;4.20;;;16.40;99.90;;;;;;4991752;28;20181;-64
2021/04/09 12:22:39;;;;;;;7.73;4.77;;;16.60;99.90;;;;;;5004484;28;20176;-64
2021/04/09 12:25:06;;;;;;;9.57;5.30;;;17.10;99.90;;;;;;5011825;28;20259;-64
2021/04/09 12:27:32;;;;;;;6.60;4.27;;;17.50;99.90;;;;;;4998477;28;20547;-64
2021/04/09 12:30:01;;;;;;;5.73;4.17;;;17.50;99.90;;;;;;4991506;28;20176;-64
2021/04/09 12:32:28;;;;;;;5.57;3.67;;;17.50;99.90;;;;;;5008850;28;20167;-64
2021/04/09 12:34:53;;;;;;;6.87;4.27;;;17.50;99.90;;;;;;5002688;28;20184;-64
2021/04/09 12:37:19;;;;;;;6.10;4.10;;;17.30;99.90;;;;;;4992027;28;20658;-64
2021/04/09 12:39:45;;;;;;;4.80;3.97;;;17.10;99.90;;;;;;4997986;28;20263;-64
2021/04/09 12:42:11;;;;;;;5.07;4.20;;;17.20;99.90;;;;;;5011426;28;20173;-64
2021/04/09 12:44:36;;;;;;;6.83;4.20;;;17.40;99.90;;;;;;5008329;28;20216;-64
2021/04/09 12:47:03;;;;;;;4.90;4.07;;;17.40;99.90;;;;;;4995562;28;20189;-64
2021/04/09 12:49:29;;;;;;;4.27;3.43;;;17.60;99.90;;;;;;4998620;28;20184;-64
2021/04/09 12:51:55;;;;;;;6.67;3.97;;;17.80;99.90;;;;;;5014654;28;20286;-64
2021/04/09 12:54:21;;;;;;;7.37;4.90;;;18.10;99.90;;;;;;5013202;28;20211;-65
2021/04/09 12:56:47;;;;;;;4.73;4.07;;;18.40;99.90;;;;;;4994251;28;20193;-64
2021/04/09 12:59:13;;;;;;;6.90;4.63;;;18.80;99.90;;;;;;4995638;28;20235;-64
2021/04/09 13:01:39;;;;;;;7.40;4.80;;;19.00;99.90;;;;;;5009737;28;20397;-65